createdAt,value
2019-05-20T00:00:52.537Z,992.55
2019-05-20T00:01:52.016Z,992.57
2019-05-20T00:02:51.496Z,992.61
2019-05-20T00:03:50.934Z,992.59
2019-05-20T00:04:50.482Z,992.61
2019-05-20T00:05:49.940Z,992.62
2019-05-20T00:06:49.462Z,992.59
2019-05-20T00:07:49.066Z,992.63
2019-05-20T00:08:48.565Z,992.63
2019-05-20T00:09:48.034Z,992.72
2019-05-20T00:10:47.579Z,992.62
2019-05-20T00:11:47.124Z,992.62
2019-05-20T00:12:46.554Z,992.63
2019-05-20T00:13:46.097Z,992.71
2019-05-20T00:14:45.547Z,992.64
2019-05-20T00:15:45.074Z,992.71
2019-05-20T00:16:44.679Z,992.73
2019-05-20T00:17:44.244Z,992.64
2019-05-20T00:18:43.700Z,992.70
2019-05-20T00:19:43.236Z,992.72
2019-05-20T00:20:42.712Z,992.70
2019-05-20T00:21:42.272Z,992.76
2019-05-20T00:22:41.740Z,992.86
2019-05-20T00:23:41.251Z,992.71
2019-05-20T00:24:40.712Z,992.82
2019-05-20T00:25:40.205Z,992.75
2019-05-20T00:26:39.736Z,992.80
2019-05-20T00:27:39.287Z,992.74
2019-05-20T00:28:38.826Z,992.82
2019-05-20T00:29:38.332Z,992.80
2019-05-20T00:30:37.805Z,992.72
2019-05-20T00:31:37.408Z,992.69
2019-05-20T00:32:41.043Z,992.72
2019-05-20T00:33:36.411Z,992.69
2019-05-20T00:34:35.896Z,992.75
2019-05-20T00:35:35.367Z,992.64
2019-05-20T00:36:34.860Z,992.60
2019-05-20T00:37:34.433Z,992.71
2019-05-20T00:38:33.919Z,992.70
2019-05-20T00:39:33.415Z,992.67
2019-05-20T00:40:32.866Z,992.67
2019-05-20T00:41:32.422Z,992.61
2019-05-20T00:42:31.835Z,992.61
2019-05-20T00:43:31.347Z,992.52
2019-05-20T00:44:30.957Z,992.52
2019-05-20T00:45:30.389Z,992.52
2019-05-20T00:46:29.953Z,992.56
2019-05-20T00:47:29.425Z,992.48
2019-05-20T00:48:29.092Z,992.51
2019-05-20T00:49:28.561Z,992.50
2019-05-20T00:50:28.043Z,992.51
2019-05-20T00:51:27.514Z,992.53
2019-05-20T00:52:27.059Z,992.46
2019-05-20T00:53:26.614Z,992.44
2019-05-20T00:54:26.095Z,992.43
2019-05-20T00:55:25.636Z,992.41
2019-05-20T00:56:25.054Z,992.43
2019-05-20T00:57:24.604Z,992.43
2019-05-20T00:58:24.212Z,992.46
2019-05-20T00:59:23.695Z,992.41
2019-05-20T01:00:23.251Z,992.45
2019-05-20T01:01:22.706Z,992.40
2019-05-20T01:02:22.161Z,992.40
2019-05-20T01:03:21.665Z,992.40
2019-05-20T01:04:21.147Z,992.36
2019-05-20T01:05:20.636Z,992.33
2019-05-20T01:06:20.109Z,992.23
2019-05-20T01:07:19.559Z,992.32
2019-05-20T01:08:19.128Z,992.33
2019-05-20T01:09:18.575Z,992.32
2019-05-20T01:10:18.112Z,992.29
2019-05-20T01:11:17.567Z,992.32
2019-05-20T01:12:17.017Z,992.40
2019-05-20T01:13:16.509Z,992.41
2019-05-20T01:14:15.992Z,992.35
2019-05-20T01:15:15.667Z,992.35
2019-05-20T01:16:15.113Z,992.33
2019-05-20T01:17:14.683Z,992.34
2019-05-20T01:18:14.193Z,992.34
2019-05-20T01:19:13.773Z,992.40
2019-05-20T01:20:13.315Z,992.36
2019-05-20T01:21:12.852Z,992.37
2019-05-20T01:22:12.350Z,992.34
2019-05-20T01:23:11.852Z,992.43
2019-05-20T01:24:11.363Z,992.39
2019-05-20T01:25:10.880Z,992.38
2019-05-20T01:26:10.433Z,992.37
2019-05-20T01:27:09.889Z,992.41
2019-05-20T01:28:09.404Z,992.44
2019-05-20T01:29:09.002Z,992.31
2019-05-20T01:30:08.470Z,992.45
2019-05-20T01:31:08.039Z,992.41
2019-05-20T01:32:07.480Z,992.35
2019-05-20T01:33:13.889Z,992.38
2019-05-20T01:34:06.521Z,992.35
2019-05-20T01:35:05.981Z,992.29
2019-05-20T01:36:05.460Z,992.33
2019-05-20T01:37:04.958Z,992.32
2019-05-20T01:38:04.484Z,992.34
2019-05-20T01:39:03.906Z,992.29
2019-05-20T01:40:03.455Z,992.26
2019-05-20T01:41:02.965Z,992.23
2019-05-20T01:42:02.598Z,992.29
2019-05-20T01:43:02.110Z,992.31
2019-05-20T01:44:01.583Z,992.27
2019-05-20T01:45:01.152Z,992.27
2019-05-20T01:46:00.670Z,992.30
2019-05-20T01:47:00.272Z,992.25
2019-05-20T01:47:59.719Z,992.31
2019-05-20T01:48:59.277Z,992.28
2019-05-20T01:49:58.842Z,992.35
2019-05-20T01:50:58.300Z,992.31
2019-05-20T01:51:57.801Z,992.26
2019-05-20T01:53:00.218Z,992.29
2019-05-20T01:53:58.893Z,992.29
2019-05-20T01:54:58.599Z,992.44
2019-05-20T01:55:58.065Z,992.25
2019-05-20T01:56:57.528Z,992.38
2019-05-20T01:57:57.031Z,992.32
2019-05-20T01:58:56.495Z,992.37
2019-05-20T01:59:56.005Z,992.39
2019-05-20T02:00:55.488Z,992.21
2019-05-20T02:01:55.097Z,992.27
2019-05-20T02:02:54.556Z,992.29
2019-05-20T02:03:54.029Z,992.31
2019-05-20T02:04:53.561Z,992.28
2019-05-20T02:05:53.038Z,992.27
2019-05-20T02:06:52.527Z,992.18
2019-05-20T02:07:52.109Z,992.17
2019-05-20T02:08:51.565Z,992.13
2019-05-20T02:09:51.063Z,992.20
2019-05-20T02:10:50.561Z,992.18
2019-05-20T02:11:50.019Z,992.20
2019-05-20T02:12:49.554Z,992.20
2019-05-20T02:13:49.068Z,992.21
2019-05-20T02:14:48.598Z,992.22
2019-05-20T02:15:48.092Z,992.21
2019-05-20T02:16:47.527Z,992.22
2019-05-20T02:17:46.999Z,992.14
2019-05-20T02:18:46.516Z,992.18
2019-05-20T02:19:46.046Z,992.24
2019-05-20T02:20:45.548Z,992.17
2019-05-20T02:21:44.998Z,992.11
2019-05-20T02:22:44.560Z,992.19
2019-05-20T02:23:43.973Z,992.17
2019-05-20T02:24:43.530Z,992.18
2019-05-20T02:25:46.599Z,992.14
2019-05-20T02:26:45.419Z,992.15
2019-05-20T02:27:44.087Z,992.21
2019-05-20T02:28:43.559Z,992.14
2019-05-20T02:29:45.992Z,992.11
2019-05-20T02:30:44.714Z,992.14
2019-05-20T02:31:44.204Z,992.18
2019-05-20T02:32:43.719Z,992.22
2019-05-20T02:33:51.558Z,992.17
2019-05-20T02:34:42.617Z,992.17
2019-05-20T02:35:42.150Z,992.16
2019-05-20T02:36:41.650Z,992.16
2019-05-20T02:37:41.193Z,992.16
2019-05-20T02:38:40.707Z,992.09
2019-05-20T02:39:40.190Z,992.15
2019-05-20T02:40:39.670Z,992.18
2019-05-20T02:41:39.196Z,992.19
2019-05-20T02:42:38.823Z,992.13
2019-05-20T02:43:38.212Z,992.17
2019-05-20T02:44:37.854Z,992.23
2019-05-20T02:45:37.370Z,992.14
2019-05-20T02:46:36.913Z,992.20
2019-05-20T02:47:36.334Z,992.19
2019-05-20T02:48:35.846Z,992.26
2019-05-20T02:49:35.338Z,992.29
2019-05-20T02:50:34.865Z,992.29
2019-05-20T02:51:34.379Z,992.24
2019-05-20T02:52:33.893Z,992.24
2019-05-20T02:53:36.447Z,992.25
2019-05-20T02:54:35.190Z,992.34
2019-05-20T02:55:34.619Z,992.36
2019-05-20T02:56:34.117Z,992.25
2019-05-20T02:57:33.622Z,992.25
2019-05-20T02:58:33.204Z,992.24
2019-05-20T02:59:32.778Z,992.22
2019-05-20T03:00:32.214Z,992.30
2019-05-20T03:01:31.765Z,992.28
2019-05-20T03:02:31.239Z,992.24
2019-05-20T03:03:30.729Z,992.30
2019-05-20T03:04:30.258Z,992.23
2019-05-20T03:05:29.834Z,992.27
2019-05-20T03:06:29.273Z,992.24
2019-05-20T03:07:28.746Z,992.31
2019-05-20T03:08:28.254Z,992.28
2019-05-20T03:09:27.801Z,992.33
2019-05-20T03:10:27.232Z,992.34
2019-05-20T03:11:26.865Z,992.26
2019-05-20T03:12:26.347Z,992.30
2019-05-20T03:13:25.945Z,992.34
2019-05-20T03:14:25.459Z,992.31
2019-05-20T03:15:24.866Z,992.31
2019-05-20T03:16:24.416Z,992.34
2019-05-20T03:17:23.941Z,992.36
2019-05-20T03:18:23.387Z,992.34
2019-05-20T03:19:22.919Z,992.35
2019-05-20T03:20:22.371Z,992.36
2019-05-20T03:21:21.935Z,992.27
2019-05-20T03:22:24.460Z,992.31
2019-05-20T03:23:23.120Z,992.31
2019-05-20T03:24:22.558Z,992.30
2019-05-20T03:25:21.988Z,992.33
2019-05-20T03:26:21.478Z,992.36
2019-05-20T03:27:20.957Z,992.33
2019-05-20T03:28:20.485Z,992.31
2019-05-20T03:29:20.057Z,992.31
2019-05-20T03:30:19.586Z,992.32
2019-05-20T03:31:18.993Z,992.39
2019-05-20T03:32:18.459Z,992.32
2019-05-20T03:33:17.937Z,992.32
2019-05-20T03:34:42.034Z,992.30
2019-05-20T03:36:16.378Z,992.31
2019-05-20T03:37:15.954Z,992.30
2019-05-20T03:38:15.399Z,992.32
2019-05-20T03:39:14.897Z,992.28
2019-05-20T03:40:14.471Z,992.30
2019-05-20T03:41:14.036Z,992.28
2019-05-20T03:42:13.554Z,992.27
2019-05-20T03:43:13.173Z,992.32
2019-05-20T03:44:12.673Z,992.34
2019-05-20T03:45:12.249Z,992.38
2019-05-20T03:46:11.715Z,992.37
2019-05-20T03:47:11.181Z,992.34
2019-05-20T03:48:10.720Z,992.33
2019-05-20T03:49:10.258Z,992.33
2019-05-20T03:50:09.771Z,992.27
2019-05-20T03:51:09.280Z,992.28
2019-05-20T03:52:08.928Z,992.33
2019-05-20T03:53:08.492Z,992.36
2019-05-20T03:54:08.070Z,992.22
2019-05-20T03:55:07.566Z,992.27
2019-05-20T03:56:07.107Z,992.35
2019-05-20T03:57:06.587Z,992.32
2019-05-20T03:58:06.176Z,992.32
2019-05-20T03:59:05.642Z,992.34
2019-05-20T04:00:05.099Z,992.41
2019-05-20T04:01:04.667Z,992.35
2019-05-20T04:02:04.165Z,992.34
2019-05-20T04:03:03.712Z,992.44
2019-05-20T04:04:03.166Z,992.45
2019-05-20T04:05:03.266Z,992.53
2019-05-20T04:06:02.282Z,992.51
2019-05-20T04:07:01.663Z,992.41
2019-05-20T04:08:01.129Z,992.48
2019-05-20T04:09:00.635Z,992.51
2019-05-20T04:10:00.179Z,992.54
2019-05-20T04:12:02.172Z,992.57
2019-05-20T04:13:00.887Z,992.52
2019-05-20T04:14:00.474Z,992.57
2019-05-20T04:14:59.947Z,992.62
2019-05-20T04:15:59.467Z,992.58
2019-05-20T04:16:58.993Z,992.61
2019-05-20T04:17:58.501Z,992.62
2019-05-20T04:18:57.998Z,992.60
2019-05-20T04:19:57.397Z,992.58
2019-05-20T04:20:57.074Z,992.65
2019-05-20T04:21:56.542Z,992.64
2019-05-20T04:22:55.823Z,992.64
2019-05-20T04:23:55.552Z,992.63
2019-05-20T04:24:55.014Z,992.68
2019-05-20T04:25:54.517Z,992.63
2019-05-20T04:26:54.228Z,992.69
2019-05-20T04:27:53.448Z,992.65
2019-05-20T04:28:52.959Z,992.65
2019-05-20T04:29:52.420Z,992.69
2019-05-20T04:30:51.998Z,992.63
2019-05-20T04:31:51.539Z,992.72
2019-05-20T04:32:51.049Z,992.65
2019-05-20T04:33:50.546Z,992.69
2019-05-20T04:34:50.063Z,992.68
2019-05-20T04:35:50.077Z,992.65
2019-05-20T04:36:48.936Z,992.60
2019-05-20T04:37:48.433Z,992.70
2019-05-20T04:38:47.907Z,992.59
2019-05-20T04:39:47.298Z,992.52
2019-05-20T04:40:46.737Z,992.53
2019-05-20T04:41:46.151Z,992.57
2019-05-20T04:42:45.599Z,992.64
2019-05-20T04:43:45.030Z,992.63
2019-05-20T04:44:44.524Z,992.66
2019-05-20T04:45:43.971Z,992.65
2019-05-20T04:46:43.415Z,992.62
2019-05-20T04:47:42.868Z,992.61
2019-05-20T04:48:42.261Z,992.65
2019-05-20T04:50:41.512Z,992.56
2019-05-20T04:51:40.828Z,992.58
2019-05-20T04:52:40.258Z,992.61
2019-05-20T04:53:39.772Z,992.66
2019-05-20T04:54:39.234Z,992.58
2019-05-20T04:55:38.926Z,992.62
2019-05-20T04:56:38.305Z,992.63
2019-05-20T04:57:37.698Z,992.62
2019-05-20T04:58:37.156Z,992.60
2019-05-20T04:59:36.641Z,992.64
2019-05-20T05:00:36.142Z,992.60
2019-05-20T05:01:35.569Z,992.64
2019-05-20T05:02:34.911Z,992.66
2019-05-20T05:03:34.515Z,992.67
2019-05-20T05:04:34.063Z,992.63
2019-05-20T05:05:37.532Z,992.61
2019-05-20T05:06:33.020Z,992.58
2019-05-20T05:07:32.494Z,992.59
2019-05-20T05:08:32.018Z,992.70
2019-05-20T05:09:31.584Z,992.63
2019-05-20T05:10:31.046Z,992.69
2019-05-20T05:11:30.633Z,992.72
2019-05-20T05:12:30.172Z,992.70
2019-05-20T05:13:29.657Z,992.63
2019-05-20T05:14:29.238Z,992.65
2019-05-20T05:15:28.698Z,992.67
2019-05-20T05:16:28.155Z,992.72
2019-05-20T05:17:27.634Z,992.68
2019-05-20T05:18:27.357Z,992.69
2019-05-20T05:19:27.048Z,992.66
2019-05-20T05:20:29.456Z,992.65
2019-05-20T05:21:28.075Z,992.71
2019-05-20T05:22:27.546Z,992.72
2019-05-20T05:23:27.049Z,992.69
2019-05-20T05:24:26.581Z,992.66
2019-05-20T05:25:26.048Z,992.76
2019-05-20T05:26:25.589Z,992.72
2019-05-20T05:27:25.112Z,992.77
2019-05-20T05:28:27.327Z,992.75
2019-05-20T05:29:26.060Z,992.72
2019-05-20T05:30:25.476Z,992.81
2019-05-20T05:31:25.021Z,992.70
2019-05-20T05:32:24.569Z,992.72
2019-05-20T05:33:24.065Z,992.68
2019-05-20T05:34:23.565Z,992.76
2019-05-20T05:35:23.030Z,992.75
2019-05-20T05:36:22.613Z,992.71
2019-05-20T05:37:22.077Z,992.73
2019-05-20T05:38:21.563Z,992.67
2019-05-20T05:39:21.058Z,992.80
2019-05-20T05:40:20.619Z,992.84
2019-05-20T05:41:20.111Z,992.71
2019-05-20T05:42:19.568Z,992.83
2019-05-20T05:43:19.104Z,992.83
2019-05-20T05:44:18.746Z,992.81
2019-05-20T05:45:18.219Z,992.87
2019-05-20T05:46:17.537Z,992.79
2019-05-20T05:47:17.193Z,992.87
2019-05-20T05:48:16.710Z,992.87
2019-05-20T05:49:17.898Z,992.81
2019-05-20T05:50:16.727Z,992.97
2019-05-20T05:51:16.163Z,992.92
2019-05-20T05:52:15.629Z,992.84
2019-05-20T05:53:15.319Z,992.86
2019-05-20T05:54:14.719Z,992.86
2019-05-20T05:55:14.193Z,992.96
2019-05-20T05:56:13.733Z,992.95
2019-05-20T05:57:13.250Z,992.98
2019-05-20T05:58:12.713Z,992.87
2019-05-20T05:59:12.312Z,992.90
2019-05-20T06:00:11.881Z,993.02
2019-05-20T06:01:11.389Z,993.00
2019-05-20T06:02:10.846Z,993.03
2019-05-20T06:03:10.445Z,992.99
2019-05-20T06:04:09.857Z,993.01
2019-05-20T06:05:09.365Z,993.06
2019-05-20T06:06:12.734Z,993.08
2019-05-20T06:07:08.421Z,993.07
2019-05-20T06:08:07.904Z,993.08
2019-05-20T06:09:07.431Z,993.10
2019-05-20T06:10:06.947Z,993.09
2019-05-20T06:11:06.426Z,993.06
2019-05-20T06:12:05.890Z,993.07
2019-05-20T06:13:05.448Z,993.12
2019-05-20T06:14:04.899Z,993.15
2019-05-20T06:15:04.432Z,993.14
2019-05-20T06:16:03.889Z,993.13
2019-05-20T06:17:03.428Z,993.13
2019-05-20T06:18:02.891Z,993.19
2019-05-20T06:19:02.591Z,993.10
2019-05-20T06:20:01.966Z,993.15
2019-05-20T06:21:01.460Z,993.16
2019-05-20T06:22:00.979Z,993.15
2019-05-20T06:23:00.444Z,993.26
2019-05-20T06:24:00.009Z,993.26
2019-05-20T06:24:59.488Z,993.23
2019-05-20T06:25:58.948Z,993.22
2019-05-20T06:26:58.385Z,993.23
2019-05-20T06:27:57.900Z,993.24
2019-05-20T06:28:57.489Z,993.27
2019-05-20T06:29:56.959Z,993.20
2019-05-20T06:30:56.393Z,993.22
2019-05-20T06:31:55.841Z,993.26
2019-05-20T06:32:55.316Z,993.26
2019-05-20T06:33:54.872Z,993.18
2019-05-20T06:34:54.420Z,993.19
2019-05-20T06:35:53.901Z,993.25
2019-05-20T06:36:53.383Z,993.23
2019-05-20T06:37:52.850Z,993.21
2019-05-20T06:38:52.324Z,993.14
2019-05-20T06:39:51.960Z,993.27
2019-05-20T06:40:51.425Z,993.17
2019-05-20T06:41:50.902Z,993.23
2019-05-20T06:42:50.448Z,993.26
2019-05-20T06:43:49.898Z,993.28
2019-05-20T06:44:52.869Z,993.28
2019-05-20T06:45:48.820Z,993.31
2019-05-20T06:46:48.368Z,993.23
2019-05-20T06:47:47.849Z,993.26
2019-05-20T06:48:47.354Z,993.26
2019-05-20T06:49:46.837Z,993.18
2019-05-20T06:50:46.438Z,993.22
2019-05-20T06:51:45.916Z,993.25
2019-05-20T06:52:45.501Z,993.34
2019-05-20T06:53:45.023Z,993.20
2019-05-20T06:54:44.543Z,993.23
2019-05-20T06:55:44.010Z,993.25
2019-05-20T06:56:43.606Z,993.32
2019-05-20T06:57:42.958Z,993.26
2019-05-20T06:58:42.622Z,993.24
2019-05-20T06:59:42.147Z,993.25
2019-05-20T07:00:41.658Z,993.31
2019-05-20T07:01:41.107Z,993.31
2019-05-20T07:02:40.679Z,993.29
2019-05-20T07:03:40.322Z,993.35
2019-05-20T07:04:39.817Z,993.39
2019-05-20T07:05:39.436Z,993.42
2019-05-20T07:06:46.576Z,993.33
2019-05-20T07:07:38.559Z,993.29
2019-05-20T07:08:42.924Z,993.37
2019-05-20T07:09:41.482Z,993.35
2019-05-20T07:10:40.891Z,993.35
2019-05-20T07:11:40.456Z,993.34
2019-05-20T07:12:41.828Z,993.31
2019-05-20T07:13:39.603Z,993.37
2019-05-20T07:14:39.215Z,993.38
2019-05-20T07:15:38.756Z,993.42
2019-05-20T07:16:38.256Z,993.37
2019-05-20T07:17:37.829Z,993.34
2019-05-20T07:18:37.342Z,993.36
2019-05-20T07:19:36.988Z,993.44
2019-05-20T07:20:36.551Z,993.30
2019-05-20T07:21:35.987Z,993.34
2019-05-20T07:22:53.918Z,993.33
2019-05-20T07:23:35.102Z,993.26
2019-05-20T07:24:34.656Z,993.26
2019-05-20T07:25:34.174Z,993.33
2019-05-20T07:26:33.706Z,993.32
2019-05-20T07:27:33.194Z,993.36
2019-05-20T07:28:32.768Z,993.33
2019-05-20T07:29:32.315Z,993.36
2019-05-20T07:30:33.630Z,993.40
2019-05-20T07:31:32.530Z,993.39
2019-05-20T07:32:32.043Z,993.35
2019-05-20T07:33:34.560Z,993.32
2019-05-20T07:34:33.352Z,993.27
2019-05-20T07:35:32.816Z,993.23
2019-05-20T07:36:32.336Z,993.33
2019-05-20T07:37:31.910Z,993.35
2019-05-20T07:38:31.422Z,993.32
2019-05-20T07:39:31.003Z,993.35
2019-05-20T07:40:30.521Z,993.33
2019-05-20T07:41:31.857Z,993.35
2019-05-20T07:42:30.805Z,993.29
2019-05-20T07:43:30.322Z,993.28
2019-05-20T07:44:29.864Z,993.30
2019-05-20T07:45:29.409Z,993.38
2019-05-20T07:46:29.010Z,993.28
2019-05-20T07:47:28.523Z,993.31
2019-05-20T07:48:28.036Z,993.29
2019-05-20T07:49:27.594Z,993.31
2019-05-20T07:50:27.098Z,993.29
2019-05-20T07:51:26.676Z,993.35
2019-05-20T07:52:26.134Z,993.34
2019-05-20T07:53:25.715Z,993.33
2019-05-20T07:54:30.349Z,993.34
2019-05-20T07:55:28.860Z,993.31
2019-05-20T07:56:28.339Z,993.29
2019-05-20T07:57:27.924Z,993.27
2019-05-20T07:58:27.451Z,993.31
2019-05-20T07:59:27.016Z,993.27
2019-05-20T08:00:31.219Z,993.22
2019-05-20T08:01:29.764Z,993.24
2019-05-20T08:02:29.268Z,993.30
2019-05-20T08:03:28.782Z,993.31
2019-05-20T08:04:28.373Z,993.27
2019-05-20T08:05:27.849Z,993.28
2019-05-20T08:06:27.452Z,993.27
2019-05-20T08:07:41.425Z,993.24
2019-05-20T08:08:26.591Z,993.32
2019-05-20T08:09:26.118Z,993.36
2019-05-20T08:10:25.630Z,993.34
2019-05-20T08:11:25.161Z,993.35
2019-05-20T08:12:29.740Z,993.29
2019-05-20T08:13:28.217Z,993.33
2019-05-20T08:14:27.633Z,993.36
2019-05-20T08:15:27.102Z,993.34
2019-05-20T08:16:31.478Z,993.27
2019-05-20T08:17:34.847Z,993.32
2019-05-20T08:18:33.276Z,993.39
2019-05-20T08:19:32.774Z,993.36
2019-05-20T08:20:32.321Z,993.42
2019-05-20T08:21:31.749Z,993.34
2019-05-20T08:22:31.213Z,993.50
2019-05-20T08:23:30.768Z,993.47
2019-05-20T08:24:30.358Z,993.37
2019-05-20T08:25:29.818Z,993.44
2019-05-20T08:26:29.416Z,993.45
2019-05-20T08:27:28.873Z,993.48
2019-05-20T08:28:28.468Z,993.47
2019-05-20T08:29:27.985Z,993.45
2019-05-20T08:30:27.517Z,993.54
2019-05-20T08:31:27.098Z,993.60
2019-05-20T08:32:26.658Z,993.56
2019-05-20T08:33:26.181Z,993.56
2019-05-20T08:34:30.928Z,993.59
2019-05-20T08:35:29.243Z,993.60
2019-05-20T08:36:28.622Z,993.65
2019-05-20T08:37:44.961Z,993.60
2019-05-20T08:38:31.435Z,993.67
2019-05-20T08:39:30.886Z,993.60
2019-05-20T08:40:30.499Z,993.62
2019-05-20T08:41:29.954Z,993.63
2019-05-20T08:42:29.486Z,993.71
2019-05-20T08:43:29.177Z,993.57
2019-05-20T08:44:28.481Z,993.62
2019-05-20T08:45:32.843Z,993.58
2019-05-20T08:46:31.355Z,993.60
2019-05-20T08:47:30.917Z,993.60
2019-05-20T08:48:30.392Z,993.70
2019-05-20T08:49:29.936Z,993.63
2019-05-20T08:50:29.407Z,993.72
2019-05-20T08:51:28.990Z,993.69
2019-05-20T08:52:33.339Z,993.62
2019-05-20T08:53:31.813Z,993.64
2019-05-20T08:54:31.194Z,993.69
2019-05-20T08:55:30.970Z,993.78
2019-05-20T08:56:30.484Z,993.75
2019-05-20T08:57:30.066Z,993.80
2019-05-20T08:58:29.635Z,993.66
2019-05-20T08:59:29.121Z,993.71
2019-05-20T09:00:28.705Z,993.73
2019-05-20T09:01:28.289Z,993.77
2019-05-20T09:02:27.857Z,993.79
2019-05-20T09:03:30.376Z,993.71
2019-05-20T09:04:26.955Z,993.73
2019-05-20T09:05:28.381Z,993.71
2019-05-20T09:06:26.085Z,993.70
2019-05-20T09:07:25.639Z,993.66
2019-05-20T09:08:25.103Z,993.66
2019-05-20T09:09:24.775Z,993.67
2019-05-20T09:10:24.294Z,993.73
2019-05-20T09:11:23.870Z,993.68
2019-05-20T09:12:34.518Z,993.68
2019-05-20T09:13:41.097Z,993.69
2019-05-20T09:14:40.668Z,993.71
2019-05-20T09:15:38.760Z,993.59
2019-05-20T09:16:38.321Z,993.74
2019-05-20T09:17:39.074Z,993.65
2019-05-20T09:18:37.407Z,993.65
2019-05-20T09:19:47.032Z,993.62
2019-05-20T09:20:43.622Z,993.67
2019-05-20T09:21:51.446Z,993.59
2019-05-20T09:22:49.801Z,993.70
2019-05-20T09:23:49.186Z,993.64
2019-05-20T09:25:48.220Z,993.58
2019-05-20T09:26:47.748Z,993.58
2019-05-20T09:27:47.256Z,993.59
2019-05-20T09:28:46.822Z,993.57
2019-05-20T09:29:46.343Z,993.62
2019-05-20T09:30:45.900Z,993.54
2019-05-20T09:31:45.512Z,993.63
2019-05-20T09:32:45.018Z,993.63
2019-05-20T09:33:44.614Z,993.57
2019-05-20T09:34:44.172Z,993.53
2019-05-20T09:35:43.777Z,993.56
2019-05-20T09:36:43.144Z,993.60
2019-05-20T09:37:54.038Z,993.58
2019-05-20T09:38:52.290Z,993.63
2019-05-20T09:39:51.969Z,993.54
2019-05-20T09:40:51.491Z,993.58
2019-05-20T09:41:50.792Z,993.62
2019-05-20T09:42:53.866Z,993.63
2019-05-20T09:43:52.688Z,993.63
2019-05-20T09:44:52.161Z,993.61
2019-05-20T09:46:05.771Z,993.65
2019-05-20T09:46:52.873Z,993.63
2019-05-20T09:47:51.958Z,993.58
2019-05-20T09:48:53.078Z,993.66
2019-05-20T09:49:52.047Z,993.69
2019-05-20T09:50:51.643Z,993.63
2019-05-20T09:51:51.133Z,993.63
2019-05-20T09:52:59.073Z,993.64
2019-05-20T09:53:57.435Z,993.65
2019-05-20T09:55:01.715Z,993.70
2019-05-20T09:56:00.114Z,993.63
2019-05-20T09:56:59.629Z,993.65
2019-05-20T09:58:07.496Z,993.63
2019-05-20T09:59:10.634Z,993.66
2019-05-20T10:00:09.039Z,993.72
2019-05-20T10:01:08.502Z,993.68
2019-05-20T10:02:08.061Z,993.70
2019-05-20T10:03:07.936Z,993.61
2019-05-20T10:04:07.148Z,993.63
2019-05-20T10:05:06.660Z,993.62
2019-05-20T10:06:06.216Z,993.63
2019-05-20T10:07:05.769Z,993.64
2019-05-20T10:08:05.369Z,993.72
2019-05-20T10:09:04.853Z,993.69
2019-05-20T10:10:09.081Z,993.69
2019-05-20T10:11:07.712Z,993.65
2019-05-20T10:12:07.150Z,993.70
2019-05-20T10:13:07.422Z,993.62
2019-05-20T10:14:06.286Z,993.74
2019-05-20T10:15:10.714Z,993.73
2019-05-20T10:16:09.156Z,993.71
2019-05-20T10:17:08.714Z,993.73
2019-05-20T10:18:08.228Z,993.78
2019-05-20T10:19:07.705Z,993.72
2019-05-20T10:20:07.285Z,993.72
2019-05-20T10:21:06.870Z,993.79
2019-05-20T10:22:06.458Z,993.82
2019-05-20T10:23:15.398Z,993.86
2019-05-20T10:24:09.340Z,993.76
2019-05-20T10:25:08.777Z,993.75
2019-05-20T10:26:08.222Z,993.80
2019-05-20T10:27:07.762Z,993.85
2019-05-20T10:28:12.127Z,993.92
2019-05-20T10:29:10.639Z,993.84
2019-05-20T10:30:10.045Z,993.90
2019-05-20T10:31:09.704Z,993.92
2019-05-20T10:32:09.212Z,993.96
2019-05-20T10:33:10.228Z,993.97
2019-05-20T10:34:08.286Z,994.06
2019-05-20T10:35:07.809Z,994.03
2019-05-20T10:36:07.360Z,994.03
2019-05-20T10:37:06.962Z,994.03
2019-05-20T10:38:06.469Z,993.98
2019-05-20T10:39:07.908Z,994.14
2019-05-20T10:40:05.584Z,993.99
2019-05-20T10:41:05.160Z,994.12
2019-05-20T10:42:09.397Z,994.13
2019-05-20T10:43:07.994Z,994.15
2019-05-20T10:44:07.545Z,994.08
2019-05-20T10:45:07.010Z,994.08
2019-05-20T10:46:11.436Z,994.14
2019-05-20T10:47:09.902Z,994.10
2019-05-20T10:48:09.491Z,994.11
2019-05-20T10:49:17.553Z,994.06
2019-05-20T10:50:15.794Z,994.16
2019-05-20T10:51:15.230Z,994.10
2019-05-20T10:52:14.814Z,994.10
2019-05-20T10:53:14.299Z,994.13
2019-05-20T10:54:13.862Z,994.10
2019-05-20T10:55:13.484Z,994.08
2019-05-20T10:56:13.741Z,994.08
2019-05-20T10:57:12.648Z,994.15
2019-05-20T10:58:12.178Z,994.15
2019-05-20T10:59:12.427Z,994.13
2019-05-20T11:00:11.210Z,994.18
2019-05-20T11:01:10.724Z,994.18
2019-05-20T11:02:10.268Z,994.22
2019-05-20T11:03:09.677Z,994.25
2019-05-20T11:04:14.033Z,994.11
2019-05-20T11:05:12.512Z,994.19
2019-05-20T11:06:12.303Z,994.19
2019-05-20T11:07:16.260Z,994.16
2019-05-20T11:08:14.733Z,994.10
2019-05-20T11:09:19.071Z,994.14
2019-05-20T11:10:17.572Z,994.10
2019-05-20T11:11:21.953Z,994.19
2019-05-20T11:12:20.548Z,994.14
2019-05-20T11:13:19.962Z,994.19
2019-05-20T11:14:24.248Z,994.20
2019-05-20T11:15:22.744Z,994.22
2019-05-20T11:16:22.336Z,994.23
2019-05-20T11:17:21.724Z,994.28
2019-05-20T11:18:21.274Z,994.24
2019-05-20T11:19:21.120Z,994.16
2019-05-20T11:20:20.563Z,994.21
2019-05-20T11:21:20.209Z,994.22
2019-05-20T11:22:24.520Z,994.22
2019-05-20T11:23:23.000Z,994.25
2019-05-20T11:24:22.507Z,994.28
2019-05-20T11:25:22.065Z,994.24
2019-05-20T11:26:21.592Z,994.19
2019-05-20T11:27:21.130Z,994.27
2019-05-20T11:28:25.426Z,994.23
2019-05-20T11:29:23.927Z,994.24
2019-05-20T11:30:28.246Z,994.33
2019-05-20T11:31:26.790Z,994.29
2019-05-20T11:32:34.651Z,994.27
2019-05-20T11:33:37.771Z,994.35
2019-05-20T11:34:36.663Z,994.31
2019-05-20T11:35:35.831Z,994.33
2019-05-20T11:36:35.357Z,994.43
2019-05-20T11:37:37.854Z,994.40
2019-05-20T11:38:36.572Z,994.29
2019-05-20T11:39:36.137Z,994.34
2019-05-20T11:40:35.640Z,994.40
2019-05-20T11:42:34.824Z,994.35
2019-05-20T11:43:39.132Z,994.30
2019-05-20T11:44:37.626Z,994.32
2019-05-20T11:45:37.107Z,994.39
2019-05-20T11:46:36.573Z,994.33
2019-05-20T11:47:36.121Z,994.35
2019-05-20T11:48:43.949Z,994.33
2019-05-20T11:49:42.443Z,994.30
2019-05-20T11:50:41.790Z,994.29
2019-05-20T11:51:42.822Z,994.37
2019-05-20T11:52:41.897Z,994.38
2019-05-20T11:53:41.380Z,994.37
2019-05-20T11:54:41.235Z,994.36
2019-05-20T11:55:40.645Z,994.37
2019-05-20T11:56:40.261Z,994.31
2019-05-20T11:57:39.788Z,994.38
2019-05-20T11:58:39.331Z,994.31
2019-05-20T11:59:38.843Z,994.34
2019-05-20T12:00:38.517Z,994.30
2019-05-20T12:01:38.092Z,994.21
2019-05-20T12:02:37.664Z,994.18
2019-05-20T12:03:37.133Z,994.23
2019-05-20T12:04:36.692Z,994.18
2019-05-20T12:05:36.216Z,994.25
2019-05-20T12:06:35.699Z,994.31
2019-05-20T12:07:35.238Z,994.22
2019-05-20T12:08:34.817Z,994.24
2019-05-20T12:09:48.338Z,994.26
2019-05-20T12:10:33.987Z,994.24
2019-05-20T12:11:33.458Z,994.28
2019-05-20T12:12:32.995Z,994.24
2019-05-20T12:13:32.544Z,994.17
2019-05-20T12:14:32.080Z,994.16
2019-05-20T12:15:31.658Z,994.30
2019-05-20T12:16:31.171Z,994.27
2019-05-20T12:17:30.716Z,994.25
2019-05-20T12:18:35.066Z,994.23
2019-05-20T12:19:38.356Z,994.28
2019-05-20T12:20:36.804Z,994.14
2019-05-20T12:21:36.253Z,994.33
2019-05-20T12:22:35.893Z,994.20
2019-05-20T12:23:35.382Z,994.24
2019-05-20T12:24:34.919Z,994.24
2019-05-20T12:25:34.501Z,994.21
2019-05-20T12:26:34.059Z,994.27
2019-05-20T12:27:33.501Z,994.16
2019-05-20T12:28:32.961Z,994.24
2019-05-20T12:29:32.562Z,994.19
2019-05-20T12:30:32.136Z,994.21
2019-05-20T12:31:31.656Z,994.22